Time;durP1;ratioP1;P1;durP2;ratioP2;P2;SDS_P1;SDS_P2;PMS_P1;PMS_P2;Temp;Humidity;BMP_temperature;BMP_pressure;BME280_temperature;BME280_humidity;BME280_pressure;Samples;Min_cycle;Max_cycle;Signal;HPM_P1;HPM_P2
2021/06/30 00:01:19;;;;;;;2.15;1.60;;;16.00;97.50;;;;;;5050647;28;20232;-91
2021/06/30 00:03:47;;;;;;;2.15;1.67;;;15.90;97.40;;;;;;5057537;28;20560;-91
2021/06/30 00:06:17;;;;;;;2.40;1.77;;;15.90;97.70;;;;;;5050078;28;20225;-91
2021/06/30 00:08:45;;;;;;;2.25;1.80;;;15.90;97.70;;;;;;5050268;28;20570;-91
2021/06/30 00:11:12;;;;;;;1.90;1.80;;;16.00;97.40;;;;;;5041960;28;20289;-91
2021/06/30 00:13:40;;;;;;;1.70;1.60;;;16.00;97.10;;;;;;5053163;28;20576;-91
2021/06/30 00:16:07;;;;;;;2.80;1.80;;;16.00;97.10;;;;;;5047370;28;20229;-91
2021/06/30 00:18:34;;;;;;;1.83;1.73;;;16.10;97.20;;;;;;5052912;28;20594;-91
2021/06/30 00:21:11;;;;;;;2.85;1.67;;;16.10;97.20;;;;;;5045892;28;20228;-91
2021/06/30 00:23:58;;;;;;;2.92;1.67;;;16.10;97.10;;;;;;5047285;28;20263;-91
2021/06/30 00:26:25;;;;;;;1.80;1.70;;;16.10;96.90;;;;;;5051567;28;20214;-91
2021/06/30 00:28:52;;;;;;;1.75;1.65;;;16.10;97.10;;;;;;5047757;28;20213;-91
2021/06/30 00:31:19;;;;;;;1.92;1.73;;;16.00;97.10;;;;;;5057744;28;20205;-91
2021/06/30 00:33:46;;;;;;;2.20;1.90;;;16.10;97.20;;;;;;5056407;28;20194;-90
2021/06/30 00:38:55;;;;;;;2.60;1.90;;;16.10;97.20;;;;;;5054312;28;20208;-91
2021/06/30 00:41:22;;;;;;;4.15;1.80;;;16.20;97.20;;;;;;5052719;28;20218;-91
2021/06/30 00:43:49;;;;;;;3.28;1.95;;;16.20;97.20;;;;;;5053152;28;20203;-91
2021/06/30 00:46:23;;;;;;;1.85;1.75;;;16.20;97.20;;;;;;5057444;28;20226;-91
2021/06/30 00:48:50;;;;;;;1.85;1.75;;;16.20;97.20;;;;;;5051106;28;20661;-92
2021/06/30 00:51:19;;;;;;;4.10;1.88;;;16.20;97.20;;;;;;5050446;28;20242;-91
2021/06/30 00:53:46;;;;;;;2.03;1.88;;;16.20;97.20;;;;;;5047296;28;20220;-91
2021/06/30 00:56:13;;;;;;;2.50;1.92;;;16.20;97.20;;;;;;5044154;28;20230;-91
2021/06/30 00:58:41;;;;;;;3.25;1.63;;;16.20;97.20;;;;;;5054838;28;20226;-91
2021/06/30 01:01:09;;;;;;;1.90;1.80;;;16.10;97.20;;;;;;5045494;28;20218;-90
2021/06/30 01:03:36;;;;;;;1.80;1.70;;;16.10;97.20;;;;;;5050887;28;20197;-91
2021/06/30 01:06:03;;;;;;;1.80;1.70;;;16.10;97.20;;;;;;5041893;28;20218;-91
2021/06/30 01:08:34;;;;;;;1.80;1.70;;;16.10;97.20;;;;;;5048135;28;20212;-91
2021/06/30 01:11:01;;;;;;;2.10;1.90;;;16.10;96.90;;;;;;5049861;28;20229;-91
2021/06/30 01:13:28;;;;;;;2.72;1.90;;;16.10;97.20;;;;;;5049369;28;20206;-91
2021/06/30 01:15:56;;;;;;;2.22;1.90;;;16.10;97.20;;;;;;5052290;28;20225;-91
2021/06/30 01:18:23;;;;;;;2.30;1.83;;;16.00;97.20;;;;;;5050365;28;20252;-91
2021/06/30 01:20:51;;;;;;;2.20;2.00;;;16.10;97.20;;;;;;5054653;28;20725;-91
2021/06/30 01:26:00;;;;;;;4.18;2.30;;;15.90;97.10;;;;;;5045000;28;20555;-91
2021/06/30 01:28:27;;;;;;;2.45;1.95;;;16.00;97.10;;;;;;5052683;28;21016;-90
2021/06/30 01:30:56;;;;;;;3.22;2.42;;;16.10;97.40;;;;;;5053355;28;20217;-90
2021/06/30 01:33:24;;;;;;;2.40;1.92;;;16.10;97.20;;;;;;5046675;28;20193;-91
2021/06/30 01:35:51;;;;;;;2.08;1.88;;;16.10;97.20;;;;;;5052217;28;20221;-91
2021/06/30 01:38:23;;;;;;;2.17;1.98;;;16.00;97.10;;;;;;5053091;28;20217;-91
2021/06/30 01:40:50;;;;;;;3.58;1.85;;;16.10;97.20;;;;;;5053600;28;20225;-91
2021/06/30 01:45:58;;;;;;;2.80;2.10;;;16.10;96.40;;;;;;5049274;28;20701;-90
2021/06/30 01:48:26;;;;;;;4.18;2.05;;;16.10;96.20;;;;;;5054000;28;20705;-90
2021/06/30 01:50:53;;;;;;;3.70;2.20;;;16.00;96.40;;;;;;5048894;28;20280;-91
2021/06/30 01:53:23;;;;;;;2.35;1.90;;;16.00;96.50;;;;;;5049255;28;20226;-91
2021/06/30 01:56:10;;;;;;;2.53;2.33;;;16.10;96.40;;;;;;5047690;28;20743;-90
2021/06/30 01:58:37;;;;;;;2.42;2.22;;;16.00;96.70;;;;;;5049751;28;20231;-91
2021/06/30 02:01:04;;;;;;;3.45;2.50;;;15.90;97.10;;;;;;5054472;28;20230;-90
2021/06/30 02:03:35;;;;;;;3.05;2.20;;;15.80;97.10;;;;;;5056264;28;20200;-91
2021/06/30 02:06:02;;;;;;;2.20;2.00;;;15.90;97.10;;;;;;5053398;28;20732;-90
2021/06/30 02:08:30;;;;;;;4.30;1.98;;;15.90;97.10;;;;;;5041289;28;20661;-90
2021/06/30 02:10:57;;;;;;;2.10;1.70;;;15.90;97.10;;;;;;5049887;28;20228;-90
2021/06/30 02:13:24;;;;;;;1.85;1.75;;;16.00;96.60;;;;;;5049477;28;20285;-90
2021/06/30 02:15:51;;;;;;;2.13;1.95;;;16.10;96.60;;;;;;5053229;28;20229;-91
2021/06/30 02:18:18;;;;;;;1.98;1.88;;;16.10;96.60;;;;;;5051448;28;20223;-90
2021/06/30 02:20:45;;;;;;;3.95;1.90;;;16.10;96.80;;;;;;5047994;28;20226;-91
2021/06/30 02:23:12;;;;;;;2.13;2.00;;;16.10;96.90;;;;;;5052267;28;20202;-90
2021/06/30 02:25:40;;;;;;;2.00;1.90;;;16.10;96.70;;;;;;5056224;28;20225;-90
2021/06/30 02:28:08;;;;;;;1.98;1.88;;;16.00;97.00;;;;;;5056047;28;20213;-91
2021/06/30 02:30:35;;;;;;;2.22;1.95;;;16.10;96.80;;;;;;5044529;28;20593;-91
2021/06/30 02:33:02;;;;;;;5.32;2.00;;;16.10;96.30;;;;;;5050788;28;20202;-91
2021/06/30 02:35:30;;;;;;;1.90;1.77;;;16.10;96.20;;;;;;5050522;28;20226;-91
2021/06/30 02:37:59;;;;;;;2.42;2.00;;;16.00;96.40;;;;;;5055357;28;20217;-90
2021/06/30 02:40:27;;;;;;;3.58;1.98;;;15.90;96.70;;;;;;5050502;28;20249;-90
2021/06/30 02:46:10;;;;;;;2.95;1.95;;;15.80;96.60;;;;;;5050699;28;20664;-90
2021/06/30 02:48:39;;;;;;;1.98;1.52;;;15.80;96.80;;;;;;5048182;28;20198;-90
2021/06/30 02:51:06;;;;;;;2.35;2.15;;;15.70;97.10;;;;;;5042300;28;20700;-90
2021/06/30 02:53:33;;;;;;;2.15;1.40;;;15.70;97.10;;;;;;5050167;28;20313;-90
2021/06/30 02:56:01;;;;;;;2.13;1.50;;;15.60;97.00;;;;;;5054064;28;20237;-90
2021/06/30 02:58:30;;;;;;;1.70;1.60;;;15.60;97.00;;;;;;5054803;28;20839;-90
2021/06/30 03:00:57;;;;;;;2.35;1.70;;;15.50;97.00;;;;;;5045471;28;20245;-90
2021/06/30 03:03:24;;;;;;;1.42;1.33;;;15.50;97.00;;;;;;5048553;28;20198;-90
2021/06/30 03:05:50;;;;;;;1.42;1.33;;;15.40;96.50;;;;;;5053152;28;20221;-90
2021/06/30 03:08:17;;;;;;;1.55;1.10;;;15.30;96.20;;;;;;5052508;28;20190;-91
2021/06/30 03:10:44;;;;;;;3.88;1.20;;;15.10;95.90;;;;;;5057072;28;20229;-90
2021/06/30 03:13:11;;;;;;;1.02;1.00;;;15.10;95.90;;;;;;5057745;28;20637;-90
2021/06/30 03:18:20;;;;;;;1.17;0.85;;;14.90;96.10;;;;;;5049687;28;20226;-91
2021/06/30 03:20:47;;;;;;;0.90;0.90;;;14.90;96.10;;;;;;5053915;28;20221;-91
2021/06/30 03:23:14;;;;;;;1.05;0.80;;;14.80;96.70;;;;;;5039145;28;20201;-91
2021/06/30 03:25:41;;;;;;;0.77;0.77;;;14.80;96.60;;;;;;5052033;28;20222;-91
2021/06/30 03:28:08;;;;;;;1.50;0.98;;;14.70;96.30;;;;;;5059726;28;20203;-90
2021/06/30 03:30:35;;;;;;;0.80;0.73;;;14.60;96.30;;;;;;5051516;28;20230;-91
2021/06/30 03:33:04;;;;;;;0.70;0.70;;;14.50;96.60;;;;;;5052508;28;20325;-91
2021/06/30 03:35:31;;;;;;;1.25;0.90;;;14.50;96.30;;;;;;5056388;28;20228;-90
2021/06/30 03:37:58;;;;;;;0.77;0.77;;;14.50;96.40;;;;;;5056321;28;20228;-90
2021/06/30 03:40:25;;;;;;;1.08;0.73;;;14.60;95.80;;;;;;5062018;28;20292;-91
2021/06/30 03:42:52;;;;;;;1.75;0.80;;;14.50;96.20;;;;;;5056358;28;20269;-90
2021/06/30 03:45:19;;;;;;;1.05;1.00;;;14.50;95.80;;;;;;5054490;28;20312;-91
2021/06/30 03:47:52;;;;;;;0.60;0.60;;;14.40;95.80;;;;;;5063304;28;20198;-91
2021/06/30 03:50:20;;;;;;;0.80;0.68;;;14.40;95.30;;;;;;5062794;28;20225;-91
2021/06/30 03:52:47;;;;;;;0.73;0.70;;;14.30;95.50;;;;;;5058635;28;20611;-91
2021/06/30 03:55:14;;;;;;;1.80;0.63;;;14.30;96.00;;;;;;5057356;28;20217;-91
2021/06/30 03:57:41;;;;;;;0.60;0.60;;;14.40;95.90;;;;;;5058396;28;20228;-91
2021/06/30 04:00:09;;;;;;;0.55;0.55;;;14.40;95.50;;;;;;5054188;28;20226;-90
2021/06/30 04:02:36;;;;;;;0.82;0.60;;;14.40;95.30;;;;;;5058337;28;20198;-90
2021/06/30 04:05:03;;;;;;;0.70;0.70;;;14.30;94.90;;;;;;5059413;28;20237;-91
2021/06/30 04:10:13;;;;;;;0.80;0.80;;;14.30;94.70;;;;;;5054700;28;20218;-91
2021/06/30 04:12:41;;;;;;;0.60;0.60;;;14.30;94.80;;;;;;5047548;28;20197;-91
2021/06/30 04:15:09;;;;;;;0.70;0.70;;;14.30;95.00;;;;;;5059260;28;20241;-91
2021/06/30 04:17:37;;;;;;;0.80;0.63;;;14.30;95.00;;;;;;5059591;28;20216;-91
2021/06/30 04:20:04;;;;;;;0.90;0.70;;;14.30;95.00;;;;;;5057521;28;20599;-92
2021/06/30 04:22:33;;;;;;;0.65;0.65;;;14.30;94.90;;;;;;5050795;28;20213;-91
2021/06/30 04:25:00;;;;;;;0.70;0.70;;;14.30;94.50;;;;;;5041884;28;20224;-92
2021/06/30 04:27:27;;;;;;;0.70;0.70;;;14.30;94.40;;;;;;5054994;28;20227;-92
2021/06/30 04:29:57;;;;;;;0.90;0.90;;;14.30;94.50;;;;;;5057317;28;20802;-92
2021/06/30 04:32:23;;;;;;;0.60;0.60;;;14.30;94.60;;;;;;5057812;28;20297;-91
2021/06/30 04:34:50;;;;;;;0.63;0.63;;;14.40;94.30;;;;;;5054552;28;20225;-91
2021/06/30 04:37:17;;;;;;;0.80;0.80;;;14.40;94.30;;;;;;5054572;28;20641;-91
2021/06/30 04:39:48;;;;;;;0.77;0.60;;;14.40;94.50;;;;;;5041148;28;20243;-91
2021/06/30 04:42:35;;;;;;;0.70;0.70;;;14.50;94.30;;;;;;5045257;28;20244;-92
2021/06/30 04:45:01;;;;;;;0.65;0.65;;;14.70;93.60;;;;;;5042781;28;20706;-91
2021/06/30 04:47:28;;;;;;;0.60;0.60;;;14.80;93.50;;;;;;5043217;28;20209;-91
2021/06/30 04:49:55;;;;;;;1.60;0.55;;;15.00;92.50;;;;;;5049760;28;20240;-91
2021/06/30 04:52:22;;;;;;;2.58;0.77;;;15.00;92.20;;;;;;5050520;28;20291;-90
2021/06/30 04:54:51;;;;;;;0.73;0.68;;;15.00;92.50;;;;;;5041267;28;20318;-91
2021/06/30 04:57:19;;;;;;;0.88;0.88;;;15.10;92.20;;;;;;5036166;28;20206;-91
2021/06/30 04:59:46;;;;;;;0.90;0.68;;;15.10;91.50;;;;;;5036338;28;20230;-90
2021/06/30 05:02:15;;;;;;;0.80;0.70;;;15.20;91.50;;;;;;5040714;28;20209;-94
2021/06/30 05:13:33;;;;;;;0.98;0.80;;;15.40;91.10;;;;;;4995899;28;20204;-92
2021/06/30 05:16:01;;;;;;;0.68;0.68;;;15.40;91.20;;;;;;5074064;28;20245;-93
2021/06/30 05:21:09;;;;;;;0.88;0.88;;;15.40;90.70;;;;;;5034973;28;20210;-92
2021/06/30 05:23:36;;;;;;;0.80;0.80;;;15.30;91.00;;;;;;5051189;28;20201;-92
2021/06/30 05:26:04;;;;;;;0.60;0.60;;;15.30;90.70;;;;;;5054840;28;20205;-93
2021/06/30 05:28:34;;;;;;;0.60;0.60;;;15.30;90.30;;;;;;5042932;28;20288;-94
2021/06/30 05:33:42;;;;;;;0.55;0.47;;;15.10;91.10;;;;;;5061304;28;20205;-93
2021/06/30 05:39:50;;;;;;;1.42;0.75;;;15.20;90.80;;;;;;5046557;28;20274;-95
2021/06/30 05:49:57;;;;;;;1.15;0.50;;;15.30;90.70;;;;;;5015152;28;20238;-94
2021/06/30 05:52:24;;;;;;;1.13;0.60;;;15.40;90.30;;;;;;5030645;28;20283;-90
2021/06/30 05:55:14;;;;;;;0.65;0.57;;;15.50;88.30;;;;;;5047652;28;20309;-93
2021/06/30 07:09:53;;;;;;;1.35;0.68;;;18.70;61.40;;;;;;5072922;28;20294;-96
2021/06/30 07:12:20;;;;;;;0.90;0.68;;;18.60;60.70;;;;;;5073915;28;20271;-96
2021/06/30 08:23:25;;;;;;;0.93;0.73;;;24.20;33.30;;;;;;5054761;28;20202;-91
2021/06/30 08:25:52;;;;;;;1.65;0.90;;;24.80;28.40;;;;;;5059887;28;20226;-94
2021/06/30 08:30:59;;;;;;;0.80;0.80;;;28.30;21.00;;;;;;5007886;28;20243;-95
2021/06/30 08:45:37;;;;;;;0.77;0.77;;;24.30;28.60;;;;;;5041319;28;20582;-94
2021/06/30 09:00:06;;;;;;;1.15;1.10;;;28.10;20.60;;;;;;4937799;29;20632;-93
2021/06/30 09:12:15;;;;;;;4.22;2.72;;;23.60;28.90;;;;;;4870293;29;20303;-93
2021/06/30 09:14:43;;;;;;;4.20;2.50;;;23.30;29.90;;;;;;4877480;29;20242;-90
2021/06/30 09:17:30;;;;;;;1.35;0.73;;;23.30;31.50;;;;;;4890189;29;20218;-93
2021/06/30 09:23:06;;;;;;;0.98;0.70;;;23.00;32.30;;;;;;5009671;28;20191;-93
2021/06/30 09:28:45;;;;;;;0.70;0.70;;;23.60;30.10;;;;;;5019517;28;20344;-91
2021/06/30 09:31:33;;;;;;;1.55;1.38;;;23.90;29.00;;;;;;5011232;28;20316;-91
2021/06/30 09:58:07;;;;;;;0.80;0.80;;;23.40;32.50;;;;;;5702558;22;20232;-92
2021/06/30 10:09:14;;;;;;;0.93;0.90;;;25.40;28.90;;;;;;5007685;28;20213;-93
2021/06/30 10:17:46;;;;;;;1.95;0.90;;;25.00;24.90;;;;;;5013911;28;20222;-93
2021/06/30 10:20:14;;;;;;;1.50;0.82;;;23.70;28.60;;;;;;5053032;28;20225;-92
2021/06/30 10:22:41;;;;;;;0.73;0.73;;;23.50;28.80;;;;;;5079159;28;20209;-91
2021/06/30 10:25:09;;;;;;;0.90;0.70;;;23.10;29.80;;;;;;5088586;28;20225;-93
2021/06/30 10:31:45;;;;;;;1.08;0.85;;;22.80;30.10;;;;;;5100244;27;20196;-93
2021/06/30 14:38:15;;;;;;;0.60;0.60;;;17.90;77.90;;;;;;6251755;23;20256;-93
2021/06/30 14:46:45;;;;;;;3.17;0.68;;;18.10;65.20;;;;;;6121725;23;20734;-93
2021/06/30 14:52:28;;;;;;;0.90;0.80;;;18.00;68.10;;;;;;6239175;23;20251;-93
2021/06/30 14:55:13;;;;;;;2.70;0.70;;;18.20;69.80;;;;;;6257872;22;20687;-93
2021/06/30 14:57:58;;;;;;;2.22;1.55;;;18.20;67.60;;;;;;6263378;23;20181;-93
2021/06/30 15:00:40;;;;;;;0.93;0.80;;;17.90;69.40;;;;;;6258820;22;20204;-93
2021/06/30 15:03:29;;;;;;;1.13;0.63;;;18.00;72.90;;;;;;6259194;23;20167;-92
2021/06/30 15:05:56;;;;;;;1.38;0.80;;;17.90;67.00;;;;;;6256932;22;20215;-93
2021/06/30 15:14:38;;;;;;;0.75;0.75;;;17.70;75.60;;;;;;6248639;22;20219;-92
2021/06/30 15:17:16;;;;;;;0.95;0.80;;;17.70;71.10;;;;;;6251755;23;20473;-93
2021/06/30 15:22:31;;;;;;;1.33;0.65;;;17.60;70.00;;;;;;6248609;23;20176;-91
2021/06/30 15:27:41;;;;;;;1.77;0.80;;;17.90;70.40;;;;;;6210912;23;20175;-91
2021/06/30 15:30:10;;;;;;;0.70;0.70;;;18.00;69.00;;;;;;6251850;22;20204;-91
2021/06/30 15:32:37;;;;;;;1.00;0.90;;;18.40;69.10;;;;;;6199230;23;20169;-92
2021/06/30 15:35:05;;;;;;;1.20;0.85;;;18.40;65.10;;;;;;6248197;22;20201;-93
2021/06/30 15:37:33;;;;;;;3.70;0.90;;;18.70;63.00;;;;;;6248707;23;20177;-92
2021/06/30 15:40:23;;;;;;;0.73;0.50;;;18.90;62.00;;;;;;6220718;22;20316;-92
2021/06/30 15:42:50;;;;;;;1.10;1.00;;;19.20;64.60;;;;;;6248377;23;20168;-92
2021/06/30 15:45:17;;;;;;;1.15;1.00;;;19.30;63.40;;;;;;6196454;23;20208;-93
2021/06/30 15:47:45;;;;;;;1.20;0.90;;;19.40;58.60;;;;;;6251435;23;20487;-91
2021/06/30 15:50:13;;;;;;;0.68;0.68;;;19.30;60.20;;;;;;6249804;22;20671;-93
2021/06/30 15:52:41;;;;;;;1.20;1.10;;;19.40;57.80;;;;;;6253816;23;20233;-91
2021/06/30 15:55:11;;;;;;;0.95;0.95;;;19.60;58.80;;;;;;6228119;23;20207;-89
2021/06/30 15:57:40;;;;;;;1.73;1.00;;;19.40;56.50;;;;;;6228315;23;20161;-89
2021/06/30 16:00:09;;;;;;;0.82;0.82;;;19.10;56.40;;;;;;6251487;22;20211;-89
2021/06/30 16:02:36;;;;;;;0.90;0.90;;;18.80;57.70;;;;;;6252994;23;20173;-90
2021/06/30 16:05:04;;;;;;;0.90;0.90;;;18.80;58.40;;;;;;6252545;22;20197;-89
2021/06/30 16:07:31;;;;;;;0.93;0.88;;;18.80;60.30;;;;;;6252704;23;20196;-89
2021/06/30 16:09:58;;;;;;;2.75;0.93;;;18.70;59.30;;;;;;6251675;22;20665;-89
2021/06/30 16:12:24;;;;;;;0.80;0.80;;;18.60;59.90;;;;;;6250592;23;20179;-89
2021/06/30 16:17:34;;;;;;;1.15;1.05;;;18.10;65.60;;;;;;6249272;23;20501;-89
2021/06/30 16:20:02;;;;;;;2.53;1.45;;;17.90;66.00;;;;;;6251501;22;20207;-89
2021/06/30 16:22:29;;;;;;;1.70;1.27;;;17.70;70.10;;;;;;6227358;23;20241;-90
2021/06/30 16:24:56;;;;;;;1.58;1.48;;;17.70;71.00;;;;;;6226233;23;20231;-91
2021/06/30 16:27:23;;;;;;;2.88;1.63;;;17.80;74.20;;;;;;6254033;23;20445;-88
2021/06/30 16:29:51;;;;;;;1.50;1.40;;;17.90;74.00;;;;;;6249577;22;20193;-90
2021/06/30 16:32:18;;;;;;;1.60;1.50;;;17.90;76.70;;;;;;6247832;23;20180;-90
2021/06/30 16:34:45;;;;;;;0.90;0.90;;;17.90;75.00;;;;;;6253937;22;20602;-89
2021/06/30 16:37:13;;;;;;;1.48;0.77;;;18.00;73.30;;;;;;6251833;23;20232;-89
2021/06/30 16:39:40;;;;;;;2.42;1.55;;;18.00;74.80;;;;;;6198516;23;20205;-92
2021/06/30 16:42:07;;;;;;;3.40;1.67;;;17.50;79.10;;;;;;6222486;23;20227;-91
2021/06/30 16:50:00;;;;;;;1.08;0.90;;;15.60;87.00;;;;;;6237364;22;20520;-91
2021/06/30 16:52:30;;;;;;;1.25;0.90;;;15.20;90.00;;;;;;6247683;23;20184;-92
2021/06/30 16:58:04;;;;;;;2.00;1.00;;;15.00;93.70;;;;;;6219876;23;20177;-91
2021/06/30 17:00:31;;;;;;;4.57;1.35;;;15.10;94.60;;;;;;6248275;22;20289;-92
2021/06/30 17:02:59;;;;;;;6.03;3.92;;;15.10;94.90;;;;;;6220047;23;20173;-91
2021/06/30 17:05:26;;;;;;;2.13;1.30;;;15.10;95.00;;;;;;6223847;23;20209;-92
2021/06/30 17:07:54;;;;;;;1.85;1.10;;;15.20;95.60;;;;;;6250026;23;20472;-91
2021/06/30 17:13:03;;;;;;;1.60;1.50;;;15.50;95.90;;;;;;6215614;23;20177;-92
2021/06/30 17:15:33;;;;;;;1.55;1.45;;;15.70;95.40;;;;;;6218639;23;20205;-92
2021/06/30 17:18:01;;;;;;;2.38;2.17;;;15.80;95.30;;;;;;6246079;23;20171;-91
2021/06/30 17:20:28;;;;;;;1.25;1.15;;;16.10;95.20;;;;;;6219867;23;20205;-90
2021/06/30 17:22:59;;;;;;;3.83;1.42;;;16.20;94.00;;;;;;6220678;23;20636;-90
2021/06/30 17:25:27;;;;;;;1.35;1.20;;;16.30;93.70;;;;;;6246688;22;20197;-90
2021/06/30 17:27:53;;;;;;;1.75;1.48;;;16.30;92.90;;;;;;6245634;23;20203;-91
2021/06/30 17:30:23;;;;;;;3.38;2.05;;;16.20;92.90;;;;;;6243280;22;20295;-91
2021/06/30 17:32:54;;;;;;;2.97;2.58;;;16.10;92.90;;;;;;6243452;23;20656;-91
2021/06/30 17:35:42;;;;;;;9.93;7.75;;;15.90;93.30;;;;;;6240010;22;20595;-91
2021/06/30 17:38:10;;;;;;;3.13;1.33;;;15.80;93.30;;;;;;6243759;23;20178;-91
2021/06/30 17:40:37;;;;;;;2.47;2.17;;;15.70;93.40;;;;;;6243603;22;20539;-91
2021/06/30 17:43:04;;;;;;;2.90;1.30;;;15.60;93.90;;;;;;6242172;23;20183;-91
2021/06/30 17:45:31;;;;;;;1.85;1.25;;;15.70;94.10;;;;;;6241155;22;20208;-91
2021/06/30 17:48:02;;;;;;;2.42;1.38;;;15.60;94.60;;;;;;6243020;23;20484;-93
2021/06/30 17:50:29;;;;;;;1.45;1.35;;;15.50;95.20;;;;;;6242752;22;20204;-92
2021/06/30 17:52:58;;;;;;;1.77;1.17;;;15.60;95.90;;;;;;6248443;23;20401;-91
2021/06/30 17:55:25;;;;;;;1.25;1.15;;;15.50;96.20;;;;;;6245206;22;20208;-92
2021/06/30 17:57:52;;;;;;;2.22;1.27;;;15.40;97.00;;;;;;6244560;23;20169;-92
2021/06/30 18:00:19;;;;;;;1.30;1.20;;;15.50;97.00;;;;;;6244782;22;20256;-93
2021/06/30 18:02:47;;;;;;;1.70;1.40;;;15.50;97.00;;;;;;6245598;23;20256;-92
2021/06/30 18:05:19;;;;;;;1.40;1.30;;;15.50;97.10;;;;;;6245244;22;20219;-92
2021/06/30 18:07:49;;;;;;;1.63;1.40;;;15.50;97.60;;;;;;6243663;23;20169;-91
2021/06/30 18:21:07;;;;;;;3.13;1.50;;;15.90;97.10;;;;;;6258004;22;20216;-93
2021/06/30 18:23:34;;;;;;;2.53;2.33;;;15.90;96.10;;;;;;6262556;23;20594;-94
2021/06/30 18:29:38;;;;;;;3.47;1.48;;;15.90;96.30;;;;;;6185225;22;20656;-92
2021/06/30 18:32:08;;;;;;;2.00;1.65;;;15.80;96.30;;;;;;6246107;23;20247;-92
2021/06/30 18:34:55;;;;;;;1.92;1.60;;;15.80;96.70;;;;;;6221704;22;20201;-93
2021/06/30 18:37:22;;;;;;;1.75;1.42;;;15.70;97.30;;;;;;6249269;23;20700;-91
2021/06/30 18:42:31;;;;;;;1.30;1.20;;;15.60;96.30;;;;;;6210461;23;20220;-92
2021/06/30 18:45:19;;;;;;;1.58;1.33;;;15.60;95.80;;;;;;6231567;22;20197;-92
2021/06/30 18:48:06;;;;;;;2.80;1.50;;;15.70;96.10;;;;;;6233001;23;20188;-92
2021/06/30 18:50:33;;;;;;;1.77;1.50;;;15.70;95.90;;;;;;6247483;22;20204;-93
2021/06/30 18:53:00;;;;;;;4.65;1.75;;;15.50;96.50;;;;;;6252462;23;20169;-91
2021/06/30 18:55:27;;;;;;;3.38;1.63;;;15.50;97.00;;;;;;6245333;22;20254;-92
2021/06/30 18:57:56;;;;;;;1.65;1.55;;;15.50;97.00;;;;;;6245438;23;20260;-92
2021/06/30 19:00:23;;;;;;;3.33;1.60;;;15.50;97.00;;;;;;6244690;22;20869;-92
2021/06/30 19:02:51;;;;;;;1.50;1.40;;;15.40;97.40;;;;;;6245161;23;20169;-92
2021/06/30 19:05:18;;;;;;;1.70;1.60;;;15.20;97.70;;;;;;6243467;22;20228;-91
2021/06/30 19:07:45;;;;;;;2.35;1.63;;;15.20;98.30;;;;;;6244695;23;20169;-93
2021/06/30 19:15:41;;;;;;;1.75;1.65;;;15.10;98.40;;;;;;6240635;22;20573;-92
2021/06/30 19:18:08;;;;;;;2.10;1.90;;;15.20;98.50;;;;;;6245350;23;20221;-91
2021/06/30 19:20:35;;;;;;;1.95;1.55;;;15.20;98.40;;;;;;6245803;22;20204;-92
2021/06/30 19:23:04;;;;;;;2.88;1.67;;;15.10;98.30;;;;;;6248977;23;20180;-92
2021/06/30 19:25:32;;;;;;;2.33;2.00;;;15.10;98.50;;;;;;6248567;22;20212;-91
2021/06/30 19:30:42;;;;;;;2.20;2.00;;;15.10;98.60;;;;;;6213874;22;20196;-91
2021/06/30 19:35:50;;;;;;;4.00;2.00;;;15.20;98.90;;;;;;6244887;22;20200;-90
2021/06/30 19:38:17;;;;;;;4.85;1.80;;;15.30;99.00;;;;;;6248360;23;20248;-90
2021/06/30 19:40:44;;;;;;;2.08;1.88;;;15.40;98.80;;;;;;6246862;22;20732;-90
2021/06/30 19:43:13;;;;;;;2.33;1.90;;;15.40;98.90;;;;;;6246904;23;20230;-90
2021/06/30 19:45:40;;;;;;;2.20;1.80;;;15.50;98.80;;;;;;6247055;22;20272;-89
2021/06/30 19:48:08;;;;;;;2.75;2.03;;;15.50;98.50;;;;;;6247488;23;20201;-90
2021/06/30 19:50:35;;;;;;;3.28;2.13;;;15.50;98.60;;;;;;6241777;22;20226;-89
2021/06/30 19:53:03;;;;;;;2.47;1.90;;;15.50;98.90;;;;;;6243514;23;20264;-91
2021/06/30 19:55:29;;;;;;;2.53;2.03;;;15.40;98.80;;;;;;6242588;22;20236;-90
2021/06/30 19:57:58;;;;;;;4.57;2.67;;;15.40;98.70;;;;;;6239320;23;20272;-90
2021/06/30 20:03:28;;;;;;;2.28;1.80;;;15.30;98.80;;;;;;6243839;23;20218;-89
2021/06/30 20:05:55;;;;;;;2.05;1.70;;;15.40;98.30;;;;;;6244126;22;20237;-90
2021/06/30 20:08:22;;;;;;;2.00;1.42;;;15.40;98.00;;;;;;6243954;23;20178;-90
2021/06/30 20:10:50;;;;;;;1.92;1.83;;;15.30;98.50;;;;;;6244077;22;20205;-89
2021/06/30 20:13:17;;;;;;;1.85;1.67;;;15.40;98.00;;;;;;6242739;23;20181;-89
2021/06/30 20:15:45;;;;;;;3.92;1.70;;;15.50;97.70;;;;;;6243013;22;20203;-89
2021/06/30 20:18:12;;;;;;;2.10;1.70;;;15.50;97.30;;;;;;6243998;23;20173;-90
2021/06/30 20:20:39;;;;;;;1.60;1.20;;;15.50;97.10;;;;;;6243234;22;20691;-89
2021/06/30 20:23:06;;;;;;;1.63;1.52;;;15.50;97.30;;;;;;6243586;23;20539;-89
2021/06/30 20:25:33;;;;;;;2.40;2.25;;;15.50;97.00;;;;;;6240029;22;20216;-90
2021/06/30 20:28:01;;;;;;;2.08;1.88;;;15.40;97.30;;;;;;6241757;23;20715;-90
2021/06/30 20:30:28;;;;;;;1.50;1.40;;;15.40;97.10;;;;;;6243773;22;20244;-90
2021/06/30 20:32:58;;;;;;;3.28;1.70;;;15.40;97.50;;;;;;6243402;23;20164;-88
2021/06/30 20:35:26;;;;;;;2.40;1.92;;;15.40;97.30;;;;;;6242416;22;20513;-89
2021/06/30 20:37:53;;;;;;;3.47;1.48;;;15.30;97.70;;;;;;6245003;23;20941;-89
2021/06/30 20:40:20;;;;;;;2.47;1.50;;;15.30;97.90;;;;;;6243883;22;20205;-91
2021/06/30 20:42:46;;;;;;;1.88;1.60;;;15.20;98.00;;;;;;6243554;23;20385;-90
2021/06/30 20:45:15;;;;;;;2.25;1.63;;;15.10;98.40;;;;;;6242502;22;20201;-90
2021/06/30 20:47:42;;;;;;;1.98;1.40;;;15.10;98.40;;;;;;6244345;23;20173;-90
2021/06/30 20:50:13;;;;;;;2.25;1.98;;;15.10;98.30;;;;;;6245034;22;20201;-89
2021/06/30 20:52:40;;;;;;;3.28;1.52;;;15.00;98.30;;;;;;6246151;23;20173;-90
2021/06/30 20:55:07;;;;;;;3.17;1.60;;;15.00;98.50;;;;;;6244433;22;20276;-89
2021/06/30 20:57:34;;;;;;;1.88;1.70;;;15.00;98.50;;;;;;6244909;23;20608;-89
2021/06/30 21:00:01;;;;;;;1.65;1.50;;;15.00;98.30;;;;;;6243686;22;20197;-89
2021/06/30 21:02:28;;;;;;;4.13;1.42;;;15.00;98.70;;;;;;6253233;23;20238;-89
2021/06/30 21:04:55;;;;;;;3.33;1.55;;;15.00;98.30;;;;;;6253819;22;20223;-90
2021/06/30 21:07:23;;;;;;;1.50;1.40;;;15.00;98.30;;;;;;6257404;23;20195;-89
2021/06/30 21:09:50;;;;;;;1.90;1.50;;;15.00;98.50;;;;;;6249644;22;20580;-90
2021/06/30 21:12:17;;;;;;;1.70;1.60;;;15.10;98.40;;;;;;6250535;23;20652;-90
2021/06/30 21:14:49;;;;;;;2.33;1.70;;;15.10;98.30;;;;;;6246549;22;20223;-90
2021/06/30 21:17:16;;;;;;;1.73;1.60;;;15.10;98.20;;;;;;6246118;23;20170;-91
2021/06/30 21:19:43;;;;;;;1.75;1.65;;;15.10;98.30;;;;;;6242479;22;20284;-89
2021/06/30 21:22:10;;;;;;;2.08;1.58;;;15.10;98.30;;;;;;6245239;23;20264;-90
2021/06/30 21:24:38;;;;;;;1.80;1.58;;;15.00;98.60;;;;;;6245638;22;20207;-89
2021/06/30 21:27:06;;;;;;;5.75;1.52;;;15.00;98.70;;;;;;6246078;23;20226;-89
2021/06/30 21:29:33;;;;;;;3.10;1.50;;;15.00;98.70;;;;;;6246084;22;20670;-89
2021/06/30 21:32:00;;;;;;;1.60;1.50;;;14.90;98.80;;;;;;6246685;23;20184;-90
2021/06/30 21:34:28;;;;;;;2.75;1.52;;;14.90;98.70;;;;;;6247626;22;20660;-89
2021/06/30 21:36:55;;;;;;;2.22;1.38;;;14.80;98.80;;;;;;6247230;23;20208;-90
2021/06/30 21:39:22;;;;;;;1.60;1.50;;;14.80;99.00;;;;;;6247792;22;20180;-89
2021/06/30 21:41:50;;;;;;;2.85;1.23;;;14.90;99.30;;;;;;6248293;23;20256;-89
2021/06/30 21:44:17;;;;;;;1.90;1.70;;;15.00;98.90;;;;;;6245424;22;20229;-90
2021/06/30 21:46:44;;;;;;;2.13;1.48;;;15.00;98.90;;;;;;6247793;23;20157;-89
2021/06/30 21:49:11;;;;;;;3.05;1.67;;;15.00;98.90;;;;;;6246182;22;20175;-89
2021/06/30 21:51:38;;;;;;;2.30;1.40;;;15.00;98.80;;;;;;6246479;23;20242;-89
2021/06/30 21:54:05;;;;;;;1.48;1.30;;;15.00;98.90;;;;;;6245455;23;20241;-90
2021/06/30 21:56:35;;;;;;;1.48;1.30;;;15.10;98.50;;;;;;6246656;23;20189;-89
2021/06/30 21:59:04;;;;;;;1.40;1.30;;;15.00;98.30;;;;;;6219954;23;20170;-89
2021/06/30 22:01:32;;;;;;;1.25;1.15;;;15.10;98.10;;;;;;6243647;23;20212;-89
2021/06/30 22:03:59;;;;;;;3.80;1.30;;;15.10;97.80;;;;;;6246511;23;20174;-89
2021/06/30 22:06:26;;;;;;;1.40;1.30;;;15.10;98.00;;;;;;6245636;22;20532;-89
2021/06/30 22:08:53;;;;;;;1.90;1.23;;;15.10;97.90;;;;;;6246129;23;20208;-89
2021/06/30 22:11:20;;;;;;;1.60;1.42;;;15.00;98.10;;;;;;6243721;22;20533;-89
2021/06/30 22:13:47;;;;;;;2.90;2.13;;;15.00;98.60;;;;;;6244845;23;20179;-90
2021/06/30 22:16:16;;;;;;;1.63;1.52;;;15.00;98.40;;;;;;6244056;22;20231;-90
2021/06/30 22:18:43;;;;;;;7.63;6.18;;;15.00;98.20;;;;;;6245318;23;20193;-89
2021/06/30 22:21:09;;;;;;;2.10;1.80;;;15.10;98.20;;;;;;6244443;22;20874;-89
2021/06/30 22:23:37;;;;;;;3.35;1.77;;;15.00;98.10;;;;;;6248574;23;20198;-90
2021/06/30 22:26:04;;;;;;;2.83;2.10;;;15.00;98.10;;;;;;6247201;22;20250;-90
2021/06/30 22:28:32;;;;;;;1.67;1.20;;;14.90;97.40;;;;;;6246872;23;20169;-89
2021/06/30 22:31:00;;;;;;;1.60;1.27;;;14.80;97.40;;;;;;6245269;22;20227;-90
2021/06/30 22:33:28;;;;;;;2.45;1.23;;;14.80;97.70;;;;;;6249140;23;20169;-90